sensor_id;sensor_type;location;lat;lon;timestamp;P1;durP1;ratioP1;P2;durP2;ratioP2
19436;SDS011;9854;50.968;4.168;2023-05-07T00:01:43;10.45;;;5.45;;
19436;SDS011;9854;50.968;4.168;2023-05-07T00:04:10;9.73;;;5.47;;
19436;SDS011;9854;50.968;4.168;2023-05-07T00:06:35;12.18;;;5.50;;
19436;SDS011;9854;50.968;4.168;2023-05-07T00:09:02;14.07;;;5.22;;
19436;SDS011;9854;50.968;4.168;2023-05-07T00:11:29;18.80;;;5.70;;
19436;SDS011;9854;50.968;4.168;2023-05-07T00:13:55;13.77;;;5.40;;
19436;SDS011;9854;50.968;4.168;2023-05-07T00:16:20;10.15;;;5.28;;
19436;SDS011;9854;50.968;4.168;2023-05-07T00:18:46;14.93;;;5.00;;
19436;SDS011;9854;50.968;4.168;2023-05-07T00:21:12;12.80;;;4.90;;
19436;SDS011;9854;50.968;4.168;2023-05-07T00:23:38;15.15;;;5.75;;
19436;SDS011;9854;50.968;4.168;2023-05-07T00:26:03;14.30;;;5.57;;
19436;SDS011;9854;50.968;4.168;2023-05-07T00:28:29;9.85;;;5.85;;
19436;SDS011;9854;50.968;4.168;2023-05-07T00:30:55;11.77;;;5.47;;
19436;SDS011;9854;50.968;4.168;2023-05-07T00:33:21;10.52;;;5.15;;
19436;SDS011;9854;50.968;4.168;2023-05-07T00:35:47;13.57;;;5.05;;
19436;SDS011;9854;50.968;4.168;2023-05-07T00:38:13;10.20;;;4.53;;
19436;SDS011;9854;50.968;4.168;2023-05-07T00:40:39;12.13;;;5.30;;
19436;SDS011;9854;50.968;4.168;2023-05-07T00:43:04;9.45;;;5.57;;
19436;SDS011;9854;50.968;4.168;2023-05-07T00:45:32;16.38;;;6.25;;
19436;SDS011;9854;50.968;4.168;2023-05-07T00:47:59;11.75;;;5.43;;
19436;SDS011;9854;50.968;4.168;2023-05-07T00:50:26;11.35;;;6.07;;
19436;SDS011;9854;50.968;4.168;2023-05-07T00:52:52;10.90;;;5.32;;
19436;SDS011;9854;50.968;4.168;2023-05-07T00:55:18;13.63;;;5.63;;
19436;SDS011;9854;50.968;4.168;2023-05-07T00:57:45;12.40;;;5.50;;
19436;SDS011;9854;50.968;4.168;2023-05-07T01:00:11;13.25;;;6.07;;
19436;SDS011;9854;50.968;4.168;2023-05-07T01:02:40;11.65;;;6.10;;
19436;SDS011;9854;50.968;4.168;2023-05-07T01:05:16;15.95;;;5.78;;
19436;SDS011;9854;50.968;4.168;2023-05-07T01:07:44;9.93;;;5.35;;
19436;SDS011;9854;50.968;4.168;2023-05-07T01:10:10;10.63;;;6.18;;
19436;SDS011;9854;50.968;4.168;2023-05-07T01:12:37;11.98;;;5.82;;
19436;SDS011;9854;50.968;4.168;2023-05-07T01:15:04;11.27;;;5.82;;
19436;SDS011;9854;50.968;4.168;2023-05-07T01:17:35;15.40;;;5.55;;
19436;SDS011;9854;50.968;4.168;2023-05-07T01:20:03;11.40;;;5.70;;
19436;SDS011;9854;50.968;4.168;2023-05-07T01:22:33;12.48;;;5.50;;
19436;SDS011;9854;50.968;4.168;2023-05-07T01:25:01;9.27;;;5.47;;
19436;SDS011;9854;50.968;4.168;2023-05-07T01:27:28;11.35;;;5.63;;
19436;SDS011;9854;50.968;4.168;2023-05-07T01:29:54;18.55;;;6.38;;
19436;SDS011;9854;50.968;4.168;2023-05-07T01:32:21;19.42;;;5.72;;
19436;SDS011;9854;50.968;4.168;2023-05-07T01:34:53;9.70;;;5.28;;
19436;SDS011;9854;50.968;4.168;2023-05-07T01:37:19;15.55;;;5.63;;
19436;SDS011;9854;50.968;4.168;2023-05-07T01:39:46;8.55;;;5.20;;
19436;SDS011;9854;50.968;4.168;2023-05-07T01:42:13;17.77;;;6.03;;
19436;SDS011;9854;50.968;4.168;2023-05-07T01:44:38;19.58;;;6.07;;
19436;SDS011;9854;50.968;4.168;2023-05-07T01:47:04;11.95;;;6.47;;
19436;SDS011;9854;50.968;4.168;2023-05-07T01:49:31;14.65;;;6.75;;
19436;SDS011;9854;50.968;4.168;2023-05-07T01:51:57;13.88;;;6.43;;
19436;SDS011;9854;50.968;4.168;2023-05-07T01:54:26;14.68;;;6.38;;
19436;SDS011;9854;50.968;4.168;2023-05-07T01:56:58;18.23;;;6.80;;
19436;SDS011;9854;50.968;4.168;2023-05-07T01:59:24;16.55;;;5.97;;
19436;SDS011;9854;50.968;4.168;2023-05-07T02:01:50;15.30;;;6.70;;
19436;SDS011;9854;50.968;4.168;2023-05-07T02:04:15;12.35;;;6.22;;
19436;SDS011;9854;50.968;4.168;2023-05-07T02:06:41;10.55;;;5.65;;
19436;SDS011;9854;50.968;4.168;2023-05-07T02:09:06;12.38;;;6.40;;
19436;SDS011;9854;50.968;4.168;2023-05-07T02:11:33;15.40;;;6.50;;
19436;SDS011;9854;50.968;4.168;2023-05-07T02:13:59;14.73;;;6.57;;
19436;SDS011;9854;50.968;4.168;2023-05-07T02:16:25;15.13;;;6.88;;
19436;SDS011;9854;50.968;4.168;2023-05-07T02:18:51;13.65;;;6.05;;
19436;SDS011;9854;50.968;4.168;2023-05-07T02:21:16;11.15;;;6.22;;
19436;SDS011;9854;50.968;4.168;2023-05-07T02:23:42;17.02;;;6.90;;
19436;SDS011;9854;50.968;4.168;2023-05-07T02:26:08;11.23;;;6.10;;
19436;SDS011;9854;50.968;4.168;2023-05-07T02:28:35;10.05;;;6.65;;
19436;SDS011;9854;50.968;4.168;2023-05-07T02:31:03;13.77;;;6.45;;
19436;SDS011;9854;50.968;4.168;2023-05-07T02:33:29;14.45;;;7.18;;
19436;SDS011;9854;50.968;4.168;2023-05-07T02:35:55;14.30;;;7.15;;
19436;SDS011;9854;50.968;4.168;2023-05-07T02:38:21;11.65;;;6.80;;
19436;SDS011;9854;50.968;4.168;2023-05-07T02:40:47;12.43;;;6.90;;
19436;SDS011;9854;50.968;4.168;2023-05-07T02:43:13;16.30;;;6.85;;
19436;SDS011;9854;50.968;4.168;2023-05-07T02:45:39;13.82;;;7.22;;
19436;SDS011;9854;50.968;4.168;2023-05-07T02:48:04;11.25;;;6.47;;
19436;SDS011;9854;50.968;4.168;2023-05-07T02:50:31;10.93;;;6.43;;
19436;SDS011;9854;50.968;4.168;2023-05-07T02:52:57;10.63;;;6.55;;
19436;SDS011;9854;50.968;4.168;2023-05-07T02:55:23;9.63;;;6.45;;
19436;SDS011;9854;50.968;4.168;2023-05-07T02:57:49;19.65;;;7.18;;
19436;SDS011;9854;50.968;4.168;2023-05-07T03:00:16;12.73;;;6.40;;
19436;SDS011;9854;50.968;4.168;2023-05-07T03:02:43;16.60;;;6.70;;
19436;SDS011;9854;50.968;4.168;2023-05-07T03:05:10;12.05;;;6.32;;
19436;SDS011;9854;50.968;4.168;2023-05-07T03:07:37;9.07;;;6.85;;
19436;SDS011;9854;50.968;4.168;2023-05-07T03:10:02;9.02;;;5.90;;
19436;SDS011;9854;50.968;4.168;2023-05-07T03:12:28;8.75;;;6.65;;
19436;SDS011;9854;50.968;4.168;2023-05-07T03:14:55;10.95;;;7.03;;
19436;SDS011;9854;50.968;4.168;2023-05-07T03:17:21;11.63;;;7.10;;
19436;SDS011;9854;50.968;4.168;2023-05-07T03:19:46;12.95;;;6.85;;
19436;SDS011;9854;50.968;4.168;2023-05-07T03:22:12;10.18;;;6.88;;
19436;SDS011;9854;50.968;4.168;2023-05-07T03:24:38;8.20;;;6.68;;
19436;SDS011;9854;50.968;4.168;2023-05-07T03:27:03;13.70;;;6.90;;
19436;SDS011;9854;50.968;4.168;2023-05-07T03:29:29;13.25;;;6.70;;
19436;SDS011;9854;50.968;4.168;2023-05-07T03:31:54;12.27;;;6.40;;
19436;SDS011;9854;50.968;4.168;2023-05-07T03:34:20;11.88;;;6.07;;
19436;SDS011;9854;50.968;4.168;2023-05-07T03:36:50;10.20;;;6.15;;
19436;SDS011;9854;50.968;4.168;2023-05-07T03:39:16;19.02;;;7.28;;
19436;SDS011;9854;50.968;4.168;2023-05-07T03:41:41;11.20;;;6.63;;
19436;SDS011;9854;50.968;4.168;2023-05-07T03:44:07;16.45;;;6.30;;
19436;SDS011;9854;50.968;4.168;2023-05-07T03:46:33;14.40;;;7.38;;
19436;SDS011;9854;50.968;4.168;2023-05-07T03:48:59;11.18;;;7.00;;
19436;SDS011;9854;50.968;4.168;2023-05-07T03:51:25;8.98;;;6.85;;
19436;SDS011;9854;50.968;4.168;2023-05-07T03:53:51;12.63;;;6.93;;
19436;SDS011;9854;50.968;4.168;2023-05-07T03:56:18;13.07;;;6.45;;
19436;SDS011;9854;50.968;4.168;2023-05-07T03:58:44;12.95;;;7.00;;
19436;SDS011;9854;50.968;4.168;2023-05-07T04:01:10;7.43;;;6.30;;
19436;SDS011;9854;50.968;4.168;2023-05-07T04:03:36;10.45;;;6.68;;
19436;SDS011;9854;50.968;4.168;2023-05-07T04:06:02;13.82;;;7.20;;
19436;SDS011;9854;50.968;4.168;2023-05-07T04:08:27;10.23;;;6.65;;
19436;SDS011;9854;50.968;4.168;2023-05-07T04:10:56;12.07;;;7.22;;
19436;SDS011;9854;50.968;4.168;2023-05-07T04:13:23;13.20;;;7.93;;
19436;SDS011;9854;50.968;4.168;2023-05-07T04:15:50;15.32;;;7.35;;
19436;SDS011;9854;50.968;4.168;2023-05-07T04:18:16;11.00;;;7.97;;
19436;SDS011;9854;50.968;4.168;2023-05-07T04:20:42;15.57;;;8.18;;
19436;SDS011;9854;50.968;4.168;2023-05-07T04:23:07;10.35;;;7.45;;
19436;SDS011;9854;50.968;4.168;2023-05-07T04:25:33;12.52;;;7.88;;
19436;SDS011;9854;50.968;4.168;2023-05-07T04:27:59;10.70;;;7.35;;
19436;SDS011;9854;50.968;4.168;2023-05-07T04:30:25;11.30;;;6.93;;
19436;SDS011;9854;50.968;4.168;2023-05-07T04:32:51;14.25;;;7.47;;
19436;SDS011;9854;50.968;4.168;2023-05-07T04:35:17;11.85;;;7.50;;
19436;SDS011;9854;50.968;4.168;2023-05-07T04:37:44;16.95;;;7.95;;
19436;SDS011;9854;50.968;4.168;2023-05-07T04:40:09;10.13;;;7.28;;
19436;SDS011;9854;50.968;4.168;2023-05-07T04:42:35;13.57;;;8.02;;
19436;SDS011;9854;50.968;4.168;2023-05-07T04:45:01;10.48;;;8.48;;
19436;SDS011;9854;50.968;4.168;2023-05-07T04:47:27;20.70;;;9.10;;
19436;SDS011;9854;50.968;4.168;2023-05-07T04:49:53;12.20;;;8.20;;
19436;SDS011;9854;50.968;4.168;2023-05-07T04:52:19;11.55;;;8.15;;
19436;SDS011;9854;50.968;4.168;2023-05-07T04:54:45;9.07;;;7.47;;
19436;SDS011;9854;50.968;4.168;2023-05-07T04:57:10;12.80;;;8.05;;
19436;SDS011;9854;50.968;4.168;2023-05-07T04:59:36;13.57;;;8.10;;
19436;SDS011;9854;50.968;4.168;2023-05-07T05:02:02;15.00;;;7.90;;
19436;SDS011;9854;50.968;4.168;2023-05-07T05:04:29;16.25;;;8.88;;
19436;SDS011;9854;50.968;4.168;2023-05-07T05:06:55;15.68;;;8.30;;
19436;SDS011;9854;50.968;4.168;2023-05-07T05:09:21;13.88;;;7.70;;
19436;SDS011;9854;50.968;4.168;2023-05-07T05:11:46;16.98;;;9.15;;
19436;SDS011;9854;50.968;4.168;2023-05-07T05:14:12;11.27;;;7.40;;
19436;SDS011;9854;50.968;4.168;2023-05-07T05:16:38;10.23;;;8.05;;
19436;SDS011;9854;50.968;4.168;2023-05-07T05:19:03;13.27;;;8.15;;
19436;SDS011;9854;50.968;4.168;2023-05-07T05:21:29;16.13;;;8.52;;
19436;SDS011;9854;50.968;4.168;2023-05-07T05:23:55;14.32;;;7.80;;
19436;SDS011;9854;50.968;4.168;2023-05-07T05:26:21;15.05;;;9.05;;
19436;SDS011;9854;50.968;4.168;2023-05-07T05:28:47;12.55;;;7.95;;
19436;SDS011;9854;50.968;4.168;2023-05-07T05:31:12;13.27;;;8.18;;
19436;SDS011;9854;50.968;4.168;2023-05-07T05:33:39;15.90;;;7.95;;
19436;SDS011;9854;50.968;4.168;2023-05-07T05:36:05;17.80;;;8.57;;
19436;SDS011;9854;50.968;4.168;2023-05-07T05:38:31;9.52;;;7.85;;
19436;SDS011;9854;50.968;4.168;2023-05-07T05:40:57;10.93;;;8.25;;
19436;SDS011;9854;50.968;4.168;2023-05-07T05:43:22;14.93;;;8.55;;
19436;SDS011;9854;50.968;4.168;2023-05-07T05:45:48;15.70;;;8.20;;
19436;SDS011;9854;50.968;4.168;2023-05-07T05:48:14;17.58;;;8.48;;
19436;SDS011;9854;50.968;4.168;2023-05-07T05:50:41;10.40;;;7.75;;
19436;SDS011;9854;50.968;4.168;2023-05-07T05:53:07;12.95;;;8.40;;
19436;SDS011;9854;50.968;4.168;2023-05-07T05:55:33;10.55;;;8.13;;
19436;SDS011;9854;50.968;4.168;2023-05-07T05:57:59;10.35;;;7.53;;
19436;SDS011;9854;50.968;4.168;2023-05-07T06:00:26;14.02;;;8.45;;
19436;SDS011;9854;50.968;4.168;2023-05-07T06:02:52;15.60;;;8.20;;
19436;SDS011;9854;50.968;4.168;2023-05-07T06:05:17;11.35;;;7.43;;
19436;SDS011;9854;50.968;4.168;2023-05-07T06:07:43;14.45;;;7.72;;
19436;SDS011;9854;50.968;4.168;2023-05-07T06:10:09;10.85;;;6.50;;
19436;SDS011;9854;50.968;4.168;2023-05-07T06:12:34;10.75;;;5.45;;
19436;SDS011;9854;50.968;4.168;2023-05-07T06:15:00;12.02;;;7.20;;
19436;SDS011;9854;50.968;4.168;2023-05-07T06:17:26;12.68;;;5.90;;
19436;SDS011;9854;50.968;4.168;2023-05-07T06:19:52;12.10;;;5.82;;
19436;SDS011;9854;50.968;4.168;2023-05-07T06:22:18;12.50;;;5.82;;
19436;SDS011;9854;50.968;4.168;2023-05-07T06:24:43;9.13;;;5.22;;
19436;SDS011;9854;50.968;4.168;2023-05-07T06:27:09;13.18;;;5.70;;
19436;SDS011;9854;50.968;4.168;2023-05-07T06:29:35;12.60;;;5.53;;
19436;SDS011;9854;50.968;4.168;2023-05-07T06:32:10;15.30;;;5.00;;
19436;SDS011;9854;50.968;4.168;2023-05-07T06:34:37;11.70;;;4.93;;
19436;SDS011;9854;50.968;4.168;2023-05-07T06:37:04;15.07;;;5.88;;
19436;SDS011;9854;50.968;4.168;2023-05-07T06:39:30;13.90;;;6.03;;
19436;SDS011;9854;50.968;4.168;2023-05-07T06:41:56;18.30;;;5.40;;
19436;SDS011;9854;50.968;4.168;2023-05-07T06:44:22;14.82;;;5.80;;
19436;SDS011;9854;50.968;4.168;2023-05-07T06:46:47;11.57;;;5.95;;
19436;SDS011;9854;50.968;4.168;2023-05-07T06:49:13;11.45;;;5.88;;
19436;SDS011;9854;50.968;4.168;2023-05-07T06:51:39;11.07;;;5.30;;
19436;SDS011;9854;50.968;4.168;2023-05-07T06:54:05;15.63;;;6.25;;
19436;SDS011;9854;50.968;4.168;2023-05-07T06:56:31;9.45;;;5.80;;
19436;SDS011;9854;50.968;4.168;2023-05-07T06:58:57;14.18;;;5.72;;
19436;SDS011;9854;50.968;4.168;2023-05-07T07:01:22;9.15;;;6.00;;
19436;SDS011;9854;50.968;4.168;2023-05-07T07:03:48;11.50;;;6.38;;
19436;SDS011;9854;50.968;4.168;2023-05-07T07:06:14;11.57;;;5.78;;
19436;SDS011;9854;50.968;4.168;2023-05-07T07:08:39;12.80;;;5.88;;
19436;SDS011;9854;50.968;4.168;2023-05-07T07:11:06;13.82;;;6.03;;
19436;SDS011;9854;50.968;4.168;2023-05-07T07:13:31;12.02;;;5.97;;
19436;SDS011;9854;50.968;4.168;2023-05-07T07:15:57;16.75;;;5.80;;
19436;SDS011;9854;50.968;4.168;2023-05-07T07:18:24;10.65;;;5.90;;
19436;SDS011;9854;50.968;4.168;2023-05-07T07:20:50;12.02;;;5.65;;
19436;SDS011;9854;50.968;4.168;2023-05-07T07:23:15;8.60;;;4.97;;
19436;SDS011;9854;50.968;4.168;2023-05-07T07:25:41;10.00;;;5.28;;
19436;SDS011;9854;50.968;4.168;2023-05-07T07:28:07;11.63;;;6.03;;
19436;SDS011;9854;50.968;4.168;2023-05-07T07:30:32;12.68;;;6.68;;
19436;SDS011;9854;50.968;4.168;2023-05-07T07:32:58;10.65;;;5.47;;
19436;SDS011;9854;50.968;4.168;2023-05-07T07:35:28;9.95;;;5.20;;
19436;SDS011;9854;50.968;4.168;2023-05-07T07:37:54;11.15;;;4.82;;
19436;SDS011;9854;50.968;4.168;2023-05-07T07:40:21;9.38;;;5.40;;
19436;SDS011;9854;50.968;4.168;2023-05-07T07:42:46;9.95;;;5.43;;
19436;SDS011;9854;50.968;4.168;2023-05-07T07:45:12;8.50;;;4.70;;
19436;SDS011;9854;50.968;4.168;2023-05-07T07:47:38;7.80;;;4.72;;
19436;SDS011;9854;50.968;4.168;2023-05-07T07:50:05;10.60;;;5.00;;
19436;SDS011;9854;50.968;4.168;2023-05-07T07:52:31;9.93;;;5.13;;
19436;SDS011;9854;50.968;4.168;2023-05-07T07:54:57;7.28;;;4.30;;
19436;SDS011;9854;50.968;4.168;2023-05-07T07:57:23;9.95;;;4.03;;
19436;SDS011;9854;50.968;4.168;2023-05-07T07:59:49;13.05;;;4.95;;
19436;SDS011;9854;50.968;4.168;2023-05-07T08:02:15;9.80;;;4.35;;
19436;SDS011;9854;50.968;4.168;2023-05-07T08:04:41;11.73;;;4.72;;
19436;SDS011;9854;50.968;4.168;2023-05-07T08:07:10;9.82;;;4.07;;
19436;SDS011;9854;50.968;4.168;2023-05-07T08:09:36;8.20;;;3.83;;
19436;SDS011;9854;50.968;4.168;2023-05-07T08:12:03;8.15;;;3.75;;
19436;SDS011;9854;50.968;4.168;2023-05-07T08:14:29;6.57;;;3.63;;
19436;SDS011;9854;50.968;4.168;2023-05-07T08:16:55;12.07;;;4.20;;
19436;SDS011;9854;50.968;4.168;2023-05-07T08:19:21;7.93;;;3.75;;
19436;SDS011;9854;50.968;4.168;2023-05-07T08:21:47;6.65;;;3.63;;
19436;SDS011;9854;50.968;4.168;2023-05-07T08:24:14;7.88;;;3.78;;
19436;SDS011;9854;50.968;4.168;2023-05-07T08:26:40;8.65;;;4.07;;
19436;SDS011;9854;50.968;4.168;2023-05-07T08:29:06;8.63;;;4.28;;
19436;SDS011;9854;50.968;4.168;2023-05-07T08:31:32;7.90;;;4.28;;
19436;SDS011;9854;50.968;4.168;2023-05-07T08:33:58;8.00;;;4.18;;
19436;SDS011;9854;50.968;4.168;2023-05-07T08:36:25;7.57;;;4.47;;
19436;SDS011;9854;50.968;4.168;2023-05-07T08:38:51;6.90;;;4.25;;
19436;SDS011;9854;50.968;4.168;2023-05-07T08:41:17;8.05;;;4.22;;
19436;SDS011;9854;50.968;4.168;2023-05-07T08:43:45;8.27;;;4.10;;
19436;SDS011;9854;50.968;4.168;2023-05-07T08:46:13;9.35;;;4.05;;
19436;SDS011;9854;50.968;4.168;2023-05-07T08:48:47;6.13;;;4.10;;
19436;SDS011;9854;50.968;4.168;2023-05-07T08:51:15;10.07;;;3.70;;
19436;SDS011;9854;50.968;4.168;2023-05-07T08:53:42;6.93;;;3.88;;
19436;SDS011;9854;50.968;4.168;2023-05-07T08:56:09;7.78;;;4.00;;
19436;SDS011;9854;50.968;4.168;2023-05-07T08:58:34;9.98;;;4.45;;
19436;SDS011;9854;50.968;4.168;2023-05-07T09:01:07;7.35;;;4.15;;
19436;SDS011;9854;50.968;4.168;2023-05-07T09:03:35;7.07;;;3.35;;
19436;SDS011;9854;50.968;4.168;2023-05-07T09:06:02;8.27;;;3.80;;
19436;SDS011;9854;50.968;4.168;2023-05-07T09:08:28;11.02;;;4.10;;
19436;SDS011;9854;50.968;4.168;2023-05-07T09:10:54;10.18;;;4.60;;
19436;SDS011;9854;50.968;4.168;2023-05-07T09:13:20;8.85;;;4.25;;
19436;SDS011;9854;50.968;4.168;2023-05-07T09:15:46;7.10;;;4.13;;
19436;SDS011;9854;50.968;4.168;2023-05-07T09:18:12;7.80;;;4.10;;
19436;SDS011;9854;50.968;4.168;2023-05-07T09:20:38;5.57;;;4.00;;
19436;SDS011;9854;50.968;4.168;2023-05-07T09:23:05;9.18;;;4.28;;
19436;SDS011;9854;50.968;4.168;2023-05-07T09:25:32;8.80;;;4.55;;
19436;SDS011;9854;50.968;4.168;2023-05-07T09:27:59;9.00;;;4.68;;
19436;SDS011;9854;50.968;4.168;2023-05-07T09:30:28;11.23;;;5.22;;
19436;SDS011;9854;50.968;4.168;2023-05-07T09:32:59;7.78;;;4.63;;
19436;SDS011;9854;50.968;4.168;2023-05-07T09:35:26;7.70;;;4.68;;
19436;SDS011;9854;50.968;4.168;2023-05-07T09:37:53;5.55;;;3.90;;
19436;SDS011;9854;50.968;4.168;2023-05-07T09:40:23;11.38;;;4.35;;
19436;SDS011;9854;50.968;4.168;2023-05-07T09:42:51;8.88;;;2.80;;
19436;SDS011;9854;50.968;4.168;2023-05-07T09:45:25;6.85;;;3.00;;
19436;SDS011;9854;50.968;4.168;2023-05-07T09:47:53;6.68;;;2.90;;
19436;SDS011;9854;50.968;4.168;2023-05-07T09:50:22;5.13;;;2.95;;
19436;SDS011;9854;50.968;4.168;2023-05-07T09:52:57;6.47;;;2.80;;
19436;SDS011;9854;50.968;4.168;2023-05-07T09:55:23;5.50;;;3.28;;
19436;SDS011;9854;50.968;4.168;2023-05-07T09:57:50;6.75;;;2.60;;
19436;SDS011;9854;50.968;4.168;2023-05-07T10:00:20;8.90;;;2.88;;
19436;SDS011;9854;50.968;4.168;2023-05-07T10:02:47;5.30;;;2.70;;
19436;SDS011;9854;50.968;4.168;2023-05-07T10:05:14;6.53;;;2.60;;
19436;SDS011;9854;50.968;4.168;2023-05-07T10:07:41;4.75;;;3.00;;
19436;SDS011;9854;50.968;4.168;2023-05-07T10:10:07;4.78;;;2.35;;
19436;SDS011;9854;50.968;4.168;2023-05-07T10:12:33;8.52;;;3.22;;
19436;SDS011;9854;50.968;4.168;2023-05-07T10:15:05;7.75;;;3.10;;
19436;SDS011;9854;50.968;4.168;2023-05-07T10:17:33;3.63;;;2.20;;
19436;SDS011;9854;50.968;4.168;2023-05-07T10:20:07;5.15;;;1.92;;
19436;SDS011;9854;50.968;4.168;2023-05-07T10:22:37;5.03;;;2.28;;
19436;SDS011;9854;50.968;4.168;2023-05-07T10:25:06;7.75;;;2.25;;
19436;SDS011;9854;50.968;4.168;2023-05-07T10:27:46;5.95;;;2.63;;
19436;SDS011;9854;50.968;4.168;2023-05-07T10:32:55;3.50;;;2.38;;
19436;SDS011;9854;50.968;4.168;2023-05-07T10:35:30;4.68;;;2.90;;
19436;SDS011;9854;50.968;4.168;2023-05-07T10:38:01;7.63;;;3.58;;
19436;SDS011;9854;50.968;4.168;2023-05-07T10:40:27;4.97;;;3.60;;
19436;SDS011;9854;50.968;4.168;2023-05-07T10:42:54;9.90;;;3.40;;
19436;SDS011;9854;50.968;4.168;2023-05-07T10:45:20;5.38;;;3.28;;
19436;SDS011;9854;50.968;4.168;2023-05-07T10:50:37;6.65;;;4.40;;
19436;SDS011;9854;50.968;4.168;2023-05-07T10:55:42;4.80;;;3.40;;
19436;SDS011;9854;50.968;4.168;2023-05-07T11:00:47;5.78;;;3.67;;
19436;SDS011;9854;50.968;4.168;2023-05-07T11:03:16;5.07;;;3.25;;
19436;SDS011;9854;50.968;4.168;2023-05-07T11:05:42;6.18;;;3.42;;
19436;SDS011;9854;50.968;4.168;2023-05-07T11:08:08;6.95;;;3.35;;
19436;SDS011;9854;50.968;4.168;2023-05-07T11:16:22;6.45;;;2.90;;
19436;SDS011;9854;50.968;4.168;2023-05-07T11:18:53;4.90;;;2.58;;
19436;SDS011;9854;50.968;4.168;2023-05-07T11:24:02;4.03;;;1.85;;
19436;SDS011;9854;50.968;4.168;2023-05-07T11:26:29;2.65;;;1.90;;
19436;SDS011;9854;50.968;4.168;2023-05-07T11:28:56;3.65;;;1.30;;
19436;SDS011;9854;50.968;4.168;2023-05-07T11:31:25;4.95;;;1.48;;
19436;SDS011;9854;50.968;4.168;2023-05-07T11:33:53;1.45;;;1.15;;
19436;SDS011;9854;50.968;4.168;2023-05-07T11:36:20;4.18;;;1.80;;
19436;SDS011;9854;50.968;4.168;2023-05-07T11:38:47;2.80;;;1.60;;
19436;SDS011;9854;50.968;4.168;2023-05-07T11:41:13;3.13;;;1.88;;
19436;SDS011;9854;50.968;4.168;2023-05-07T11:43:40;4.28;;;1.52;;
19436;SDS011;9854;50.968;4.168;2023-05-07T11:46:19;5.28;;;1.63;;
19436;SDS011;9854;50.968;4.168;2023-05-07T11:48:45;2.45;;;1.65;;
19436;SDS011;9854;50.968;4.168;2023-05-07T11:51:11;4.15;;;1.63;;
19436;SDS011;9854;50.968;4.168;2023-05-07T11:53:39;1.70;;;1.60;;
19436;SDS011;9854;50.968;4.168;2023-05-07T11:56:06;3.35;;;1.90;;
19436;SDS011;9854;50.968;4.168;2023-05-07T11:58:33;2.80;;;1.90;;
19436;SDS011;9854;50.968;4.168;2023-05-07T12:00:59;4.47;;;2.00;;
19436;SDS011;9854;50.968;4.168;2023-05-07T12:03:25;5.82;;;2.15;;
19436;SDS011;9854;50.968;4.168;2023-05-07T12:05:50;3.00;;;1.75;;
19436;SDS011;9854;50.968;4.168;2023-05-07T12:08:17;3.95;;;1.98;;
19436;SDS011;9854;50.968;4.168;2023-05-07T12:10:43;2.15;;;1.73;;
19436;SDS011;9854;50.968;4.168;2023-05-07T12:15:46;6.97;;;2.30;;
19436;SDS011;9854;50.968;4.168;2023-05-07T12:18:15;3.03;;;1.80;;
19436;SDS011;9854;50.968;4.168;2023-05-07T12:20:40;13.57;;;2.03;;
19436;SDS011;9854;50.968;4.168;2023-05-07T12:23:07;3.63;;;2.00;;
19436;SDS011;9854;50.968;4.168;2023-05-07T12:25:36;3.00;;;1.92;;
19436;SDS011;9854;50.968;4.168;2023-05-07T12:28:03;2.80;;;2.20;;
19436;SDS011;9854;50.968;4.168;2023-05-07T12:30:32;3.65;;;2.15;;
19436;SDS011;9854;50.968;4.168;2023-05-07T12:33:04;6.05;;;1.88;;
19436;SDS011;9854;50.968;4.168;2023-05-07T12:35:30;2.67;;;2.03;;
19436;SDS011;9854;50.968;4.168;2023-05-07T12:37:57;3.65;;;2.03;;
19436;SDS011;9854;50.968;4.168;2023-05-07T12:40:29;4.10;;;2.38;;
19436;SDS011;9854;50.968;4.168;2023-05-07T12:43:01;3.05;;;1.65;;
19436;SDS011;9854;50.968;4.168;2023-05-07T12:45:27;1.98;;;1.65;;
19436;SDS011;9854;50.968;4.168;2023-05-07T12:47:52;3.25;;;1.92;;
19436;SDS011;9854;50.968;4.168;2023-05-07T12:50:18;3.30;;;2.15;;
19436;SDS011;9854;50.968;4.168;2023-05-07T12:52:46;3.60;;;2.40;;
19436;SDS011;9854;50.968;4.168;2023-05-07T12:55:14;2.03;;;1.80;;
19436;SDS011;9854;50.968;4.168;2023-05-07T12:57:45;2.95;;;1.90;;
19436;SDS011;9854;50.968;4.168;2023-05-07T13:00:13;3.20;;;1.90;;
19436;SDS011;9854;50.968;4.168;2023-05-07T13:02:39;2.42;;;1.88;;
19436;SDS011;9854;50.968;4.168;2023-05-07T13:05:06;3.33;;;1.90;;
19436;SDS011;9854;50.968;4.168;2023-05-07T13:07:32;5.47;;;2.35;;
19436;SDS011;9854;50.968;4.168;2023-05-07T13:09:58;4.47;;;2.47;;
19436;SDS011;9854;50.968;4.168;2023-05-07T13:12:24;3.58;;;2.10;;
19436;SDS011;9854;50.968;4.168;2023-05-07T13:14:49;2.47;;;1.90;;
19436;SDS011;9854;50.968;4.168;2023-05-07T13:17:15;2.33;;;2.10;;
19436;SDS011;9854;50.968;4.168;2023-05-07T13:19:41;3.75;;;2.20;;
19436;SDS011;9854;50.968;4.168;2023-05-07T13:22:07;2.50;;;2.08;;
19436;SDS011;9854;50.968;4.168;2023-05-07T13:24:32;4.82;;;1.98;;
19436;SDS011;9854;50.968;4.168;2023-05-07T13:26:58;2.47;;;2.10;;
19436;SDS011;9854;50.968;4.168;2023-05-07T13:29:24;3.63;;;2.22;;
19436;SDS011;9854;50.968;4.168;2023-05-07T13:31:54;5.80;;;2.20;;
19436;SDS011;9854;50.968;4.168;2023-05-07T13:34:20;3.13;;;2.58;;
19436;SDS011;9854;50.968;4.168;2023-05-07T13:36:45;2.75;;;2.38;;
19436;SDS011;9854;50.968;4.168;2023-05-07T13:39:11;2.28;;;2.08;;
19436;SDS011;9854;50.968;4.168;2023-05-07T13:41:37;3.33;;;2.10;;
19436;SDS011;9854;50.968;4.168;2023-05-07T13:44:03;2.42;;;2.15;;
19436;SDS011;9854;50.968;4.168;2023-05-07T13:46:29;5.25;;;2.53;;
19436;SDS011;9854;50.968;4.168;2023-05-07T13:48:55;4.10;;;2.30;;
19436;SDS011;9854;50.968;4.168;2023-05-07T13:51:21;3.15;;;2.40;;
19436;SDS011;9854;50.968;4.168;2023-05-07T13:53:47;4.78;;;3.22;;
19436;SDS011;9854;50.968;4.168;2023-05-07T13:56:12;3.55;;;2.90;;
19436;SDS011;9854;50.968;4.168;2023-05-07T13:58:39;3.90;;;3.10;;
19436;SDS011;9854;50.968;4.168;2023-05-07T14:01:05;2.80;;;2.50;;
19436;SDS011;9854;50.968;4.168;2023-05-07T14:03:31;3.47;;;2.80;;
19436;SDS011;9854;50.968;4.168;2023-05-07T14:05:58;3.53;;;2.65;;
19436;SDS011;9854;50.968;4.168;2023-05-07T14:08:25;3.58;;;2.17;;
19436;SDS011;9854;50.968;4.168;2023-05-07T14:10:51;5.10;;;3.00;;
19436;SDS011;9854;50.968;4.168;2023-05-07T14:13:17;2.55;;;2.33;;
19436;SDS011;9854;50.968;4.168;2023-05-07T14:15:42;3.97;;;2.53;;
19436;SDS011;9854;50.968;4.168;2023-05-07T14:18:11;3.42;;;2.63;;
19436;SDS011;9854;50.968;4.168;2023-05-07T14:20:37;3.33;;;3.00;;
19436;SDS011;9854;50.968;4.168;2023-05-07T14:23:03;4.70;;;3.03;;
19436;SDS011;9854;50.968;4.168;2023-05-07T14:25:29;3.72;;;2.45;;
19436;SDS011;9854;50.968;4.168;2023-05-07T14:27:54;3.65;;;2.67;;
19436;SDS011;9854;50.968;4.168;2023-05-07T14:30:20;3.45;;;2.88;;
19436;SDS011;9854;50.968;4.168;2023-05-07T14:32:49;3.60;;;2.75;;
19436;SDS011;9854;50.968;4.168;2023-05-07T14:35:15;3.17;;;2.65;;
19436;SDS011;9854;50.968;4.168;2023-05-07T14:37:41;4.15;;;2.72;;
19436;SDS011;9854;50.968;4.168;2023-05-07T14:40:06;5.10;;;2.90;;
19436;SDS011;9854;50.968;4.168;2023-05-07T14:42:32;4.93;;;3.15;;
19436;SDS011;9854;50.968;4.168;2023-05-07T14:44:58;4.53;;;2.85;;
19436;SDS011;9854;50.968;4.168;2023-05-07T14:47:24;3.33;;;2.67;;
19436;SDS011;9854;50.968;4.168;2023-05-07T14:49:49;4.47;;;2.90;;
19436;SDS011;9854;50.968;4.168;2023-05-07T14:52:16;4.05;;;3.03;;
19436;SDS011;9854;50.968;4.168;2023-05-07T14:54:41;7.70;;;3.30;;
19436;SDS011;9854;50.968;4.168;2023-05-07T14:57:08;4.15;;;3.03;;
19436;SDS011;9854;50.968;4.168;2023-05-07T14:59:35;4.85;;;3.15;;
19436;SDS011;9854;50.968;4.168;2023-05-07T15:02:02;4.25;;;2.70;;
19436;SDS011;9854;50.968;4.168;2023-05-07T15:04:29;3.63;;;2.88;;
19436;SDS011;9854;50.968;4.168;2023-05-07T15:06:55;5.10;;;2.90;;
19436;SDS011;9854;50.968;4.168;2023-05-07T15:09:21;6.05;;;3.20;;
19436;SDS011;9854;50.968;4.168;2023-05-07T15:11:47;7.45;;;3.15;;
19436;SDS011;9854;50.968;4.168;2023-05-07T15:14:12;4.43;;;2.88;;